This is the latest recevied weather packets stored in our database for station/object OK1ZDJ-13. If no packets are shown the sender has not sent any weather packets the latest 10 day(s).
| Time | Temp. | Humidity | Pressure | Rain* | Wind** | Luminosity | Snow |
|---|---|---|---|---|---|---|---|
| 1777744671 | 22.22° C | 32% | 1019.9 hPa | - | - | - | - |
| 1777744070 | 23.89° C | 31% | 1020 hPa | - | - | - | - |
| 1777743470 | 24.44° C | 28% | 1020 hPa | - | - | - | - |
| 1777742870 | 25° C | 24% | 1020 hPa | - | - | - | - |
| 1777742270 | 25.56° C | 19% | 1020 hPa | - | - | - | - |
| 1777741670 | 26.67° C | 19% | 1020 hPa | - | - | - | - |
| 1777741070 | 26.67° C | 18% | 1020 hPa | - | - | - | - |
| 1777740470 | 27.22° C | 20% | 1020.2 hPa | - | - | - | - |
| 1777739870 | 27.78° C | 20% | 1020.3 hPa | - | - | - | - |
| 1777739270 | 27.78° C | 17% | 1020.5 hPa | - | - | - | - |
| 1777738670 | 28.33° C | 15% | 1020.6 hPa | - | - | - | - |
| 1777738070 | 28.33° C | 16% | 1020.7 hPa | - | - | - | - |
| 1777737470 | 28.89° C | 15% | 1020.9 hPa | - | - | - | - |
| 1777736870 | 30° C | 14% | 1021 hPa | - | - | - | - |
| 1777736275 | 31.67° C | 13% | 1021 hPa | - | - | - | - |
| 1777735669 | 32.22° C | 13% | 1021.2 hPa | - | - | - | - |
| 1777735069 | 31.67° C | 13% | 1021.2 hPa | - | - | - | - |
| 1777734469 | 31.67° C | 14% | 1021.4 hPa | - | - | - | - |
| 1777733869 | 29.44° C | 15% | 1021.6 hPa | - | - | - | - |
| 1777733269 | 27.78° C | 17% | 1021.8 hPa | - | - | - | - |
| 1777732669 | 25° C | 22% | 1022 hPa | - | - | - | - |
| 1777732069 | 23.89° C | 22% | 1022.1 hPa | - | - | - | - |
| 1777731469 | 23.89° C | 21% | 1022.2 hPa | - | - | - | - |
| 1777730271 | 23.33° C | 21% | 1022.4 hPa | - | - | - | - |
| 1777729669 | 23.33° C | 21% | 1022.5 hPa | - | - | - | - |
* Rain since midnight (hover to see other rain measurements)
** Current wind speed in m/s (hover to see current wind gust speed)